sensor_id;sensor_type;location;lat;lon;timestamp;temperature;humidity
7360;DHT22;3720;48.274;7.796;2024-01-06T00:01:04;6.80;99.90
7360;DHT22;3720;48.274;7.796;2024-01-06T00:03:37;6.80;99.90
7360;DHT22;3720;48.274;7.796;2024-01-06T00:06:11;6.80;99.90
7360;DHT22;3720;48.274;7.796;2024-01-06T00:08:43;6.80;99.90
7360;DHT22;3720;48.274;7.796;2024-01-06T00:11:15;6.80;99.90
7360;DHT22;3720;48.274;7.796;2024-01-06T00:13:47;6.80;99.90
7360;DHT22;3720;48.274;7.796;2024-01-06T00:16:20;6.80;99.90
7360;DHT22;3720;48.274;7.796;2024-01-06T00:18:53;6.80;99.90
7360;DHT22;3720;48.274;7.796;2024-01-06T00:21:25;6.70;99.90
7360;DHT22;3720;48.274;7.796;2024-01-06T00:23:56;6.70;99.90
7360;DHT22;3720;48.274;7.796;2024-01-06T00:26:28;6.70;99.90
7360;DHT22;3720;48.274;7.796;2024-01-06T00:29:00;6.70;99.90
7360;DHT22;3720;48.274;7.796;2024-01-06T00:31:32;6.70;99.90
7360;DHT22;3720;48.274;7.796;2024-01-06T00:34:05;6.70;99.90
7360;DHT22;3720;48.274;7.796;2024-01-06T00:36:37;6.60;99.90
7360;DHT22;3720;48.274;7.796;2024-01-06T00:39:09;6.60;99.90
7360;DHT22;3720;48.274;7.796;2024-01-06T00:41:41;6.60;99.90
7360;DHT22;3720;48.274;7.796;2024-01-06T00:44:12;6.60;99.90
7360;DHT22;3720;48.274;7.796;2024-01-06T00:46:45;6.60;99.90
7360;DHT22;3720;48.274;7.796;2024-01-06T00:49:18;6.50;99.90
7360;DHT22;3720;48.274;7.796;2024-01-06T00:51:50;6.50;99.90
7360;DHT22;3720;48.274;7.796;2024-01-06T00:54:22;6.40;99.90
7360;DHT22;3720;48.274;7.796;2024-01-06T00:56:54;6.40;99.90
7360;DHT22;3720;48.274;7.796;2024-01-06T00:59:26;6.40;99.90
7360;DHT22;3720;48.274;7.796;2024-01-06T01:01:57;6.30;99.90
7360;DHT22;3720;48.274;7.796;2024-01-06T01:04:31;6.20;99.90
7360;DHT22;3720;48.274;7.796;2024-01-06T01:07:03;6.20;99.90
7360;DHT22;3720;48.274;7.796;2024-01-06T01:09:35;6.20;99.90
7360;DHT22;3720;48.274;7.796;2024-01-06T01:12:07;6.30;99.90
7360;DHT22;3720;48.274;7.796;2024-01-06T01:14:39;6.20;99.90
7360;DHT22;3720;48.274;7.796;2024-01-06T01:17:10;6.20;99.90
7360;DHT22;3720;48.274;7.796;2024-01-06T01:19:44;6.20;99.90
7360;DHT22;3720;48.274;7.796;2024-01-06T01:22:15;6.30;99.90
7360;DHT22;3720;48.274;7.796;2024-01-06T01:24:47;6.30;99.90
7360;DHT22;3720;48.274;7.796;2024-01-06T01:27:19;6.20;99.90
7360;DHT22;3720;48.274;7.796;2024-01-06T01:29:50;6.30;99.90
7360;DHT22;3720;48.274;7.796;2024-01-06T01:32:23;6.30;99.90
7360;DHT22;3720;48.274;7.796;2024-01-06T01:34:56;6.20;99.90
7360;DHT22;3720;48.274;7.796;2024-01-06T01:37:28;6.20;99.90
7360;DHT22;3720;48.274;7.796;2024-01-06T01:40:00;6.20;99.90
7360;DHT22;3720;48.274;7.796;2024-01-06T01:42:32;6.20;99.90
7360;DHT22;3720;48.274;7.796;2024-01-06T01:45:05;6.10;99.90
7360;DHT22;3720;48.274;7.796;2024-01-06T01:47:37;6.20;99.90
7360;DHT22;3720;48.274;7.796;2024-01-06T01:50:12;6.20;99.90
7360;DHT22;3720;48.274;7.796;2024-01-06T01:52:44;6.20;99.90
7360;DHT22;3720;48.274;7.796;2024-01-06T01:55:16;6.10;99.90
7360;DHT22;3720;48.274;7.796;2024-01-06T01:57:48;6.20;99.90
7360;DHT22;3720;48.274;7.796;2024-01-06T02:00:20;6.20;99.90
7360;DHT22;3720;48.274;7.796;2024-01-06T02:02:52;6.20;99.90
7360;DHT22;3720;48.274;7.796;2024-01-06T02:05:25;6.20;99.90
7360;DHT22;3720;48.274;7.796;2024-01-06T02:07:57;6.10;99.90
7360;DHT22;3720;48.274;7.796;2024-01-06T02:10:29;6.00;99.90
7360;DHT22;3720;48.274;7.796;2024-01-06T02:13:09;5.90;99.90
7360;DHT22;3720;48.274;7.796;2024-01-06T02:15:41;5.90;99.90
7360;DHT22;3720;48.274;7.796;2024-01-06T02:18:13;5.80;99.90
7360;DHT22;3720;48.274;7.796;2024-01-06T02:20:46;5.80;99.90
7360;DHT22;3720;48.274;7.796;2024-01-06T02:23:21;5.80;99.90
7360;DHT22;3720;48.274;7.796;2024-01-06T02:25:52;5.80;99.90
7360;DHT22;3720;48.274;7.796;2024-01-06T02:28:24;5.80;99.90
7360;DHT22;3720;48.274;7.796;2024-01-06T02:30:56;5.80;99.90
7360;DHT22;3720;48.274;7.796;2024-01-06T02:33:28;5.90;99.90
7360;DHT22;3720;48.274;7.796;2024-01-06T02:36:00;5.80;99.90
7360;DHT22;3720;48.274;7.796;2024-01-06T02:38:33;5.80;99.90
7360;DHT22;3720;48.274;7.796;2024-01-06T02:41:05;5.80;99.90
7360;DHT22;3720;48.274;7.796;2024-01-06T02:43:36;5.70;99.90
7360;DHT22;3720;48.274;7.796;2024-01-06T02:46:08;5.80;99.90
7360;DHT22;3720;48.274;7.796;2024-01-06T02:48:40;5.70;99.90
7360;DHT22;3720;48.274;7.796;2024-01-06T02:51:12;5.70;99.90
7360;DHT22;3720;48.274;7.796;2024-01-06T02:53:45;5.70;99.90
7360;DHT22;3720;48.274;7.796;2024-01-06T02:56:17;5.70;99.90
7360;DHT22;3720;48.274;7.796;2024-01-06T02:58:49;5.70;99.90
7360;DHT22;3720;48.274;7.796;2024-01-06T03:01:21;5.70;99.90
7360;DHT22;3720;48.274;7.796;2024-01-06T03:03:52;5.70;99.90
7360;DHT22;3720;48.274;7.796;2024-01-06T03:06:24;5.70;99.90
7360;DHT22;3720;48.274;7.796;2024-01-06T03:08:57;5.70;99.90
7360;DHT22;3720;48.274;7.796;2024-01-06T03:11:29;5.70;99.90
7360;DHT22;3720;48.274;7.796;2024-01-06T03:14:01;5.70;99.90
7360;DHT22;3720;48.274;7.796;2024-01-06T03:16:33;5.70;99.90
7360;DHT22;3720;48.274;7.796;2024-01-06T03:19:05;5.70;99.90
7360;DHT22;3720;48.274;7.796;2024-01-06T03:21:37;5.60;99.90
7360;DHT22;3720;48.274;7.796;2024-01-06T03:24:10;5.60;99.90
7360;DHT22;3720;48.274;7.796;2024-01-06T03:26:42;5.60;99.90
7360;DHT22;3720;48.274;7.796;2024-01-06T03:29:14;5.60;99.90
7360;DHT22;3720;48.274;7.796;2024-01-06T03:31:46;5.60;99.90
7360;DHT22;3720;48.274;7.796;2024-01-06T03:34:18;5.70;99.90
7360;DHT22;3720;48.274;7.796;2024-01-06T03:36:49;5.60;99.90
7360;DHT22;3720;48.274;7.796;2024-01-06T03:39:23;5.60;99.90
7360;DHT22;3720;48.274;7.796;2024-01-06T03:41:54;5.60;99.90
7360;DHT22;3720;48.274;7.796;2024-01-06T03:44:26;5.60;99.90
7360;DHT22;3720;48.274;7.796;2024-01-06T03:47:00;5.50;99.90
7360;DHT22;3720;48.274;7.796;2024-01-06T03:49:32;5.50;99.90
7360;DHT22;3720;48.274;7.796;2024-01-06T03:52:05;5.50;99.90
7360;DHT22;3720;48.274;7.796;2024-01-06T03:54:38;5.50;99.90
7360;DHT22;3720;48.274;7.796;2024-01-06T03:57:10;5.50;99.90
7360;DHT22;3720;48.274;7.796;2024-01-06T03:59:42;5.50;99.90
7360;DHT22;3720;48.274;7.796;2024-01-06T04:02:14;5.50;99.90
7360;DHT22;3720;48.274;7.796;2024-01-06T04:04:45;5.50;99.90
7360;DHT22;3720;48.274;7.796;2024-01-06T04:07:17;5.50;99.90
7360;DHT22;3720;48.274;7.796;2024-01-06T04:09:51;5.50;99.90
7360;DHT22;3720;48.274;7.796;2024-01-06T04:12:22;5.40;99.90
7360;DHT22;3720;48.274;7.796;2024-01-06T04:14:54;5.40;99.90
7360;DHT22;3720;48.274;7.796;2024-01-06T04:17:26;5.40;99.90
7360;DHT22;3720;48.274;7.796;2024-01-06T04:19:58;5.50;99.90
7360;DHT22;3720;48.274;7.796;2024-01-06T04:22:30;5.40;99.90
7360;DHT22;3720;48.274;7.796;2024-01-06T04:25:04;5.40;99.90
7360;DHT22;3720;48.274;7.796;2024-01-06T04:27:36;5.50;99.90
7360;DHT22;3720;48.274;7.796;2024-01-06T04:30:08;5.40;99.90
7360;DHT22;3720;48.274;7.796;2024-01-06T04:32:40;5.40;99.90
7360;DHT22;3720;48.274;7.796;2024-01-06T04:35:12;5.40;99.90
7360;DHT22;3720;48.274;7.796;2024-01-06T04:37:44;5.40;99.90
7360;DHT22;3720;48.274;7.796;2024-01-06T04:40:17;5.40;99.90
7360;DHT22;3720;48.274;7.796;2024-01-06T04:42:49;5.40;99.90
7360;DHT22;3720;48.274;7.796;2024-01-06T04:45:21;5.40;99.90
7360;DHT22;3720;48.274;7.796;2024-01-06T04:47:54;5.40;99.90
7360;DHT22;3720;48.274;7.796;2024-01-06T04:50:26;5.40;99.90
7360;DHT22;3720;48.274;7.796;2024-01-06T04:52:58;5.40;99.90
7360;DHT22;3720;48.274;7.796;2024-01-06T04:55:31;5.40;99.90
7360;DHT22;3720;48.274;7.796;2024-01-06T04:58:03;5.40;99.90
7360;DHT22;3720;48.274;7.796;2024-01-06T05:00:35;5.30;99.90
7360;DHT22;3720;48.274;7.796;2024-01-06T05:03:07;5.30;99.90
7360;DHT22;3720;48.274;7.796;2024-01-06T05:05:39;5.30;99.90
7360;DHT22;3720;48.274;7.796;2024-01-06T05:08:11;5.30;99.90
7360;DHT22;3720;48.274;7.796;2024-01-06T05:10:44;5.30;99.90
7360;DHT22;3720;48.274;7.796;2024-01-06T05:13:17;5.30;99.90
7360;DHT22;3720;48.274;7.796;2024-01-06T05:15:49;5.30;99.90
7360;DHT22;3720;48.274;7.796;2024-01-06T05:18:20;5.20;99.90
7360;DHT22;3720;48.274;7.796;2024-01-06T05:20:52;5.30;99.90
7360;DHT22;3720;48.274;7.796;2024-01-06T05:23:25;5.30;99.90
7360;DHT22;3720;48.274;7.796;2024-01-06T05:25:58;5.30;99.90
7360;DHT22;3720;48.274;7.796;2024-01-06T05:28:30;5.30;99.90
7360;DHT22;3720;48.274;7.796;2024-01-06T05:31:02;5.30;99.90
7360;DHT22;3720;48.274;7.796;2024-01-06T05:33:34;5.30;99.90
7360;DHT22;3720;48.274;7.796;2024-01-06T05:36:06;5.30;99.90
7360;DHT22;3720;48.274;7.796;2024-01-06T05:38:38;5.20;99.90
7360;DHT22;3720;48.274;7.796;2024-01-06T05:41:11;5.30;99.90
7360;DHT22;3720;48.274;7.796;2024-01-06T05:43:43;5.20;99.90
7360;DHT22;3720;48.274;7.796;2024-01-06T05:46:21;5.10;99.90
7360;DHT22;3720;48.274;7.796;2024-01-06T05:48:53;5.10;99.90
7360;DHT22;3720;48.274;7.796;2024-01-06T05:51:26;5.10;99.90
7360;DHT22;3720;48.274;7.796;2024-01-06T05:53:58;5.10;99.90
7360;DHT22;3720;48.274;7.796;2024-01-06T05:56:31;5.10;99.90
7360;DHT22;3720;48.274;7.796;2024-01-06T05:59:03;5.10;99.90
7360;DHT22;3720;48.274;7.796;2024-01-06T06:01:35;5.10;99.90
7360;DHT22;3720;48.274;7.796;2024-01-06T06:04:07;5.10;99.90
7360;DHT22;3720;48.274;7.796;2024-01-06T06:06:38;5.10;99.90
7360;DHT22;3720;48.274;7.796;2024-01-06T06:09:10;5.10;99.90
7360;DHT22;3720;48.274;7.796;2024-01-06T06:11:44;5.20;99.90
7360;DHT22;3720;48.274;7.796;2024-01-06T06:14:16;5.20;99.90
7360;DHT22;3720;48.274;7.796;2024-01-06T06:16:48;5.10;99.90
7360;DHT22;3720;48.274;7.796;2024-01-06T06:19:20;5.10;99.90
7360;DHT22;3720;48.274;7.796;2024-01-06T06:21:52;5.10;99.90
7360;DHT22;3720;48.274;7.796;2024-01-06T06:24:23;5.10;99.90
7360;DHT22;3720;48.274;7.796;2024-01-06T06:26:57;5.10;99.90
7360;DHT22;3720;48.274;7.796;2024-01-06T06:29:28;5.10;99.90
7360;DHT22;3720;48.274;7.796;2024-01-06T06:32:00;5.10;99.90
7360;DHT22;3720;48.274;7.796;2024-01-06T06:34:32;5.10;99.90
7360;DHT22;3720;48.274;7.796;2024-01-06T06:37:04;5.10;99.90
7360;DHT22;3720;48.274;7.796;2024-01-06T06:39:36;5.10;99.90
7360;DHT22;3720;48.274;7.796;2024-01-06T06:42:09;5.10;99.90
7360;DHT22;3720;48.274;7.796;2024-01-06T06:44:41;5.10;99.90
7360;DHT22;3720;48.274;7.796;2024-01-06T06:47:13;5.10;99.90
7360;DHT22;3720;48.274;7.796;2024-01-06T06:49:45;5.10;99.90
7360;DHT22;3720;48.274;7.796;2024-01-06T06:52:17;5.10;99.90
7360;DHT22;3720;48.274;7.796;2024-01-06T06:54:49;5.20;99.90
7360;DHT22;3720;48.274;7.796;2024-01-06T06:57:24;5.10;99.90
7360;DHT22;3720;48.274;7.796;2024-01-06T06:59:55;5.20;99.90
7360;DHT22;3720;48.274;7.796;2024-01-06T07:02:27;5.20;99.90
7360;DHT22;3720;48.274;7.796;2024-01-06T07:04:59;5.10;99.90
7360;DHT22;3720;48.274;7.796;2024-01-06T07:07:31;5.10;99.90
7360;DHT22;3720;48.274;7.796;2024-01-06T07:10:03;5.10;99.90
7360;DHT22;3720;48.274;7.796;2024-01-06T07:12:37;5.10;99.90
7360;DHT22;3720;48.274;7.796;2024-01-06T07:15:09;5.20;99.90
7360;DHT22;3720;48.274;7.796;2024-01-06T07:17:41;5.20;99.90
7360;DHT22;3720;48.274;7.796;2024-01-06T07:20:13;5.20;99.90
7360;DHT22;3720;48.274;7.796;2024-01-06T07:22:45;5.30;99.90
7360;DHT22;3720;48.274;7.796;2024-01-06T07:25:17;5.30;99.90
7360;DHT22;3720;48.274;7.796;2024-01-06T07:27:50;5.30;99.90
7360;DHT22;3720;48.274;7.796;2024-01-06T07:30:22;5.30;99.90
7360;DHT22;3720;48.274;7.796;2024-01-06T07:32:54;5.30;99.90
7360;DHT22;3720;48.274;7.796;2024-01-06T07:35:26;5.30;99.90
7360;DHT22;3720;48.274;7.796;2024-01-06T07:37:59;5.30;99.90
7360;DHT22;3720;48.274;7.796;2024-01-06T07:40:31;5.30;99.90
7360;DHT22;3720;48.274;7.796;2024-01-06T07:43:05;5.30;99.90
7360;DHT22;3720;48.274;7.796;2024-01-06T07:45:37;5.30;99.90
7360;DHT22;3720;48.274;7.796;2024-01-06T07:48:09;5.40;99.90
7360;DHT22;3720;48.274;7.796;2024-01-06T07:50:41;5.40;99.90
7360;DHT22;3720;48.274;7.796;2024-01-06T07:53:12;5.40;99.90
7360;DHT22;3720;48.274;7.796;2024-01-06T07:55:45;5.40;99.90
7360;DHT22;3720;48.274;7.796;2024-01-06T07:58:19;5.40;99.90
7360;DHT22;3720;48.274;7.796;2024-01-06T08:00:52;5.40;99.90
7360;DHT22;3720;48.274;7.796;2024-01-06T08:03:24;5.40;99.90
7360;DHT22;3720;48.274;7.796;2024-01-06T08:05:55;5.40;99.90
7360;DHT22;3720;48.274;7.796;2024-01-06T08:08:27;5.40;99.90
7360;DHT22;3720;48.274;7.796;2024-01-06T08:10:59;5.50;99.90
7360;DHT22;3720;48.274;7.796;2024-01-06T08:13:32;5.50;99.90
7360;DHT22;3720;48.274;7.796;2024-01-06T08:16:05;5.60;99.90
7360;DHT22;3720;48.274;7.796;2024-01-06T08:18:37;5.60;99.90
7360;DHT22;3720;48.274;7.796;2024-01-06T08:21:09;5.60;99.90
7360;DHT22;3720;48.274;7.796;2024-01-06T08:23:40;5.60;99.90
7360;DHT22;3720;48.274;7.796;2024-01-06T08:26:12;5.60;99.90
7360;DHT22;3720;48.274;7.796;2024-01-06T08:28:46;5.60;99.90
7360;DHT22;3720;48.274;7.796;2024-01-06T08:31:17;5.60;99.90
7360;DHT22;3720;48.274;7.796;2024-01-06T08:33:49;5.70;99.90
7360;DHT22;3720;48.274;7.796;2024-01-06T08:36:21;5.70;99.90
7360;DHT22;3720;48.274;7.796;2024-01-06T08:38:53;5.80;99.90
7360;DHT22;3720;48.274;7.796;2024-01-06T08:41:25;5.80;99.90
7360;DHT22;3720;48.274;7.796;2024-01-06T08:43:58;5.80;99.90
7360;DHT22;3720;48.274;7.796;2024-01-06T08:46:30;5.90;99.90
7360;DHT22;3720;48.274;7.796;2024-01-06T08:49:02;5.90;99.90
7360;DHT22;3720;48.274;7.796;2024-01-06T08:51:34;6.00;99.90
7360;DHT22;3720;48.274;7.796;2024-01-06T08:54:06;6.00;99.90
7360;DHT22;3720;48.274;7.796;2024-01-06T08:56:38;6.00;99.90
7360;DHT22;3720;48.274;7.796;2024-01-06T08:59:11;6.10;99.90
7360;DHT22;3720;48.274;7.796;2024-01-06T09:01:43;6.10;99.90
7360;DHT22;3720;48.274;7.796;2024-01-06T09:04:15;6.20;99.90
7360;DHT22;3720;48.274;7.796;2024-01-06T09:06:46;6.20;99.90
7360;DHT22;3720;48.274;7.796;2024-01-06T09:09:18;6.30;99.90
7360;DHT22;3720;48.274;7.796;2024-01-06T09:11:50;6.40;99.90
7360;DHT22;3720;48.274;7.796;2024-01-06T09:14:25;6.50;99.90
7360;DHT22;3720;48.274;7.796;2024-01-06T09:16:57;6.60;99.90
7360;DHT22;3720;48.274;7.796;2024-01-06T09:19:29;6.60;99.90
7360;DHT22;3720;48.274;7.796;2024-01-06T09:22:01;6.60;99.90
7360;DHT22;3720;48.274;7.796;2024-01-06T09:24:33;6.60;99.90
7360;DHT22;3720;48.274;7.796;2024-01-06T09:27:05;6.60;99.90
7360;DHT22;3720;48.274;7.796;2024-01-06T09:29:38;6.60;99.90
7360;DHT22;3720;48.274;7.796;2024-01-06T09:32:10;6.70;99.90
7360;DHT22;3720;48.274;7.796;2024-01-06T09:34:43;6.80;99.90
7360;DHT22;3720;48.274;7.796;2024-01-06T09:37:15;6.80;99.90
7360;DHT22;3720;48.274;7.796;2024-01-06T09:39:47;6.90;99.90
7360;DHT22;3720;48.274;7.796;2024-01-06T09:42:19;7.00;99.90
7360;DHT22;3720;48.274;7.796;2024-01-06T09:44:53;7.10;99.90
7360;DHT22;3720;48.274;7.796;2024-01-06T09:47:25;7.20;99.90
7360;DHT22;3720;48.274;7.796;2024-01-06T09:50:01;7.30;99.90
7360;DHT22;3720;48.274;7.796;2024-01-06T09:52:37;7.40;99.90
7360;DHT22;3720;48.274;7.796;2024-01-06T09:55:11;7.50;99.90
7360;DHT22;3720;48.274;7.796;2024-01-06T09:57:45;7.50;99.90
7360;DHT22;3720;48.274;7.796;2024-01-06T10:00:19;7.60;99.90
7360;DHT22;3720;48.274;7.796;2024-01-06T10:02:51;7.70;99.90
7360;DHT22;3720;48.274;7.796;2024-01-06T10:05:23;7.70;99.90
7360;DHT22;3720;48.274;7.796;2024-01-06T10:07:55;7.80;99.90
7360;DHT22;3720;48.274;7.796;2024-01-06T10:10:27;7.80;99.90
7360;DHT22;3720;48.274;7.796;2024-01-06T10:12:59;7.80;99.90
7360;DHT22;3720;48.274;7.796;2024-01-06T10:15:35;7.90;99.90
7360;DHT22;3720;48.274;7.796;2024-01-06T10:18:07;7.90;99.90
7360;DHT22;3720;48.274;7.796;2024-01-06T10:20:39;7.90;99.90
7360;DHT22;3720;48.274;7.796;2024-01-06T10:23:11;7.90;99.90
7360;DHT22;3720;48.274;7.796;2024-01-06T10:25:43;7.90;99.90
7360;DHT22;3720;48.274;7.796;2024-01-06T10:28:15;7.90;99.90
7360;DHT22;3720;48.274;7.796;2024-01-06T10:30:49;7.90;99.90
7360;DHT22;3720;48.274;7.796;2024-01-06T10:33:25;8.00;99.90
7360;DHT22;3720;48.274;7.796;2024-01-06T10:35:57;8.00;99.90
7360;DHT22;3720;48.274;7.796;2024-01-06T10:38:29;8.00;99.90
7360;DHT22;3720;48.274;7.796;2024-01-06T10:41:03;8.00;99.90
7360;DHT22;3720;48.274;7.796;2024-01-06T10:43:38;8.00;99.90
7360;DHT22;3720;48.274;7.796;2024-01-06T10:46:13;8.00;99.90
7360;DHT22;3720;48.274;7.796;2024-01-06T10:48:46;7.90;99.90
7360;DHT22;3720;48.274;7.796;2024-01-06T10:51:19;7.90;99.90
7360;DHT22;3720;48.274;7.796;2024-01-06T10:53:53;7.90;99.90
7360;DHT22;3720;48.274;7.796;2024-01-06T10:56:25;7.90;99.90
7360;DHT22;3720;48.274;7.796;2024-01-06T10:58:57;7.90;99.90
7360;DHT22;3720;48.274;7.796;2024-01-06T11:01:31;8.00;99.90
7360;DHT22;3720;48.274;7.796;2024-01-06T11:04:04;8.00;99.90
7360;DHT22;3720;48.274;7.796;2024-01-06T11:06:37;8.10;99.90
7360;DHT22;3720;48.274;7.796;2024-01-06T11:09:13;8.10;99.90
7360;DHT22;3720;48.274;7.796;2024-01-06T11:11:47;8.10;99.90
7360;DHT22;3720;48.274;7.796;2024-01-06T11:14:22;8.10;99.90
7360;DHT22;3720;48.274;7.796;2024-01-06T11:16:56;8.10;99.90
7360;DHT22;3720;48.274;7.796;2024-01-06T11:19:44;8.10;99.90
7360;DHT22;3720;48.274;7.796;2024-01-06T11:22:19;8.10;99.90
7360;DHT22;3720;48.274;7.796;2024-01-06T11:24:52;8.00;99.90
7360;DHT22;3720;48.274;7.796;2024-01-06T11:27:25;8.00;99.90
7360;DHT22;3720;48.274;7.796;2024-01-06T11:30:00;8.00;99.90
7360;DHT22;3720;48.274;7.796;2024-01-06T11:32:37;8.00;99.90
7360;DHT22;3720;48.274;7.796;2024-01-06T11:35:14;8.00;99.90
7360;DHT22;3720;48.274;7.796;2024-01-06T11:37:54;8.00;99.90
7360;DHT22;3720;48.274;7.796;2024-01-06T11:40:33;7.90;99.90
7360;DHT22;3720;48.274;7.796;2024-01-06T11:43:07;8.00;99.90
7360;DHT22;3720;48.274;7.796;2024-01-06T11:45:41;7.90;99.90
7360;DHT22;3720;48.274;7.796;2024-01-06T11:48:15;7.90;99.90
7360;DHT22;3720;48.274;7.796;2024-01-06T11:50:47;8.00;99.90
7360;DHT22;3720;48.274;7.796;2024-01-06T11:53:19;7.90;99.90
7360;DHT22;3720;48.274;7.796;2024-01-06T11:55:52;7.90;99.90
7360;DHT22;3720;48.274;7.796;2024-01-06T11:58:23;7.90;99.90
7360;DHT22;3720;48.274;7.796;2024-01-06T12:00:56;7.90;99.90
7360;DHT22;3720;48.274;7.796;2024-01-06T12:03:30;7.90;99.90
7360;DHT22;3720;48.274;7.796;2024-01-06T12:06:02;7.90;99.90
7360;DHT22;3720;48.274;7.796;2024-01-06T12:08:34;7.90;99.90
7360;DHT22;3720;48.274;7.796;2024-01-06T12:11:06;8.00;99.90
7360;DHT22;3720;48.274;7.796;2024-01-06T12:13:38;8.00;99.90
7360;DHT22;3720;48.274;7.796;2024-01-06T12:16:10;8.00;99.90
7360;DHT22;3720;48.274;7.796;2024-01-06T12:18:44;8.00;99.90
7360;DHT22;3720;48.274;7.796;2024-01-06T12:21:16;8.00;99.90
7360;DHT22;3720;48.274;7.796;2024-01-06T12:23:48;8.00;99.90
7360;DHT22;3720;48.274;7.796;2024-01-06T12:26:20;8.10;99.90
7360;DHT22;3720;48.274;7.796;2024-01-06T12:28:52;8.00;99.90
7360;DHT22;3720;48.274;7.796;2024-01-06T12:31:24;8.10;99.90
7360;DHT22;3720;48.274;7.796;2024-01-06T12:33:59;8.10;99.90
7360;DHT22;3720;48.274;7.796;2024-01-06T12:36:31;8.10;99.90
7360;DHT22;3720;48.274;7.796;2024-01-06T12:39:03;8.10;99.90
7360;DHT22;3720;48.274;7.796;2024-01-06T12:41:37;8.10;99.90
7360;DHT22;3720;48.274;7.796;2024-01-06T12:44:09;8.10;99.90
7360;DHT22;3720;48.274;7.796;2024-01-06T12:46:41;8.10;99.90
7360;DHT22;3720;48.274;7.796;2024-01-06T12:49:14;8.10;99.90
7360;DHT22;3720;48.274;7.796;2024-01-06T12:51:46;8.10;99.90
7360;DHT22;3720;48.274;7.796;2024-01-06T12:54:18;8.10;99.90
7360;DHT22;3720;48.274;7.796;2024-01-06T12:56:50;8.10;99.90
7360;DHT22;3720;48.274;7.796;2024-01-06T12:59:21;8.00;99.90
7360;DHT22;3720;48.274;7.796;2024-01-06T13:01:53;8.00;99.90
7360;DHT22;3720;48.274;7.796;2024-01-06T13:04:27;8.00;99.90
7360;DHT22;3720;48.274;7.796;2024-01-06T13:06:59;7.90;99.90
7360;DHT22;3720;48.274;7.796;2024-01-06T13:09:31;7.90;99.90
7360;DHT22;3720;48.274;7.796;2024-01-06T13:12:03;7.90;99.90
7360;DHT22;3720;48.274;7.796;2024-01-06T13:14:35;7.90;99.90
7360;DHT22;3720;48.274;7.796;2024-01-06T13:17:08;7.90;99.90
7360;DHT22;3720;48.274;7.796;2024-01-06T13:19:42;7.90;99.90
7360;DHT22;3720;48.274;7.796;2024-01-06T13:22:13;8.00;99.90
7360;DHT22;3720;48.274;7.796;2024-01-06T13:24:46;8.00;99.90
7360;DHT22;3720;48.274;7.796;2024-01-06T13:27:18;8.10;99.90
7360;DHT22;3720;48.274;7.796;2024-01-06T13:29:50;8.10;99.90
7360;DHT22;3720;48.274;7.796;2024-01-06T13:32:22;8.20;99.90
7360;DHT22;3720;48.274;7.796;2024-01-06T13:34:55;8.10;99.90
7360;DHT22;3720;48.274;7.796;2024-01-06T13:37:34;8.20;99.90
7360;DHT22;3720;48.274;7.796;2024-01-06T13:40:07;8.10;99.90
7360;DHT22;3720;48.274;7.796;2024-01-06T13:42:41;8.10;99.90
7360;DHT22;3720;48.274;7.796;2024-01-06T13:45:12;8.20;99.90
7360;DHT22;3720;48.274;7.796;2024-01-06T13:47:44;8.20;99.90
7360;DHT22;3720;48.274;7.796;2024-01-06T13:50:19;8.20;99.90
7360;DHT22;3720;48.274;7.796;2024-01-06T13:52:50;8.20;99.90
7360;DHT22;3720;48.274;7.796;2024-01-06T13:55:22;8.20;99.90
7360;DHT22;3720;48.274;7.796;2024-01-06T13:57:54;8.20;99.90
7360;DHT22;3720;48.274;7.796;2024-01-06T14:00:26;8.20;99.90
7360;DHT22;3720;48.274;7.796;2024-01-06T14:02:58;8.20;99.90
7360;DHT22;3720;48.274;7.796;2024-01-06T14:05:31;8.20;99.90
7360;DHT22;3720;48.274;7.796;2024-01-06T14:08:03;8.20;99.90
7360;DHT22;3720;48.274;7.796;2024-01-06T14:10:35;8.10;99.90
7360;DHT22;3720;48.274;7.796;2024-01-06T14:13:08;8.10;99.90
7360;DHT22;3720;48.274;7.796;2024-01-06T14:15:40;8.00;99.90
7360;DHT22;3720;48.274;7.796;2024-01-06T14:18:12;8.00;99.90
7360;DHT22;3720;48.274;7.796;2024-01-06T14:20:48;7.90;99.90
7360;DHT22;3720;48.274;7.796;2024-01-06T14:23:19;7.90;99.90
7360;DHT22;3720;48.274;7.796;2024-01-06T14:25:51;7.90;99.90
7360;DHT22;3720;48.274;7.796;2024-01-06T14:28:24;7.80;99.90
7360;DHT22;3720;48.274;7.796;2024-01-06T14:30:56;7.80;99.90
7360;DHT22;3720;48.274;7.796;2024-01-06T14:33:27;7.80;99.90
7360;DHT22;3720;48.274;7.796;2024-01-06T14:36:01;7.70;99.90
7360;DHT22;3720;48.274;7.796;2024-01-06T14:38:33;7.70;99.90
7360;DHT22;3720;48.274;7.796;2024-01-06T14:41:05;7.70;99.90
7360;DHT22;3720;48.274;7.796;2024-01-06T14:43:37;7.70;99.90
7360;DHT22;3720;48.274;7.796;2024-01-06T14:46:09;7.60;99.90
7360;DHT22;3720;48.274;7.796;2024-01-06T14:48:41;7.60;99.90
7360;DHT22;3720;48.274;7.796;2024-01-06T14:51:15;7.60;99.90
7360;DHT22;3720;48.274;7.796;2024-01-06T14:53:47;7.60;99.90
7360;DHT22;3720;48.274;7.796;2024-01-06T14:56:18;7.50;99.90
7360;DHT22;3720;48.274;7.796;2024-01-06T14:58:50;7.50;99.90
7360;DHT22;3720;48.274;7.796;2024-01-06T15:01:22;7.50;99.90
7360;DHT22;3720;48.274;7.796;2024-01-06T15:03:54;7.50;99.90
7360;DHT22;3720;48.274;7.796;2024-01-06T15:06:27;7.50;99.90
7360;DHT22;3720;48.274;7.796;2024-01-06T15:08:59;7.50;99.90
7360;DHT22;3720;48.274;7.796;2024-01-06T15:11:31;7.50;99.90
7360;DHT22;3720;48.274;7.796;2024-01-06T15:14:03;7.50;99.90
7360;DHT22;3720;48.274;7.796;2024-01-06T15:16:39;7.50;99.90
7360;DHT22;3720;48.274;7.796;2024-01-06T15:19:10;7.50;99.90
7360;DHT22;3720;48.274;7.796;2024-01-06T15:21:44;7.50;99.90
7360;DHT22;3720;48.274;7.796;2024-01-06T15:24:18;7.50;99.90
7360;DHT22;3720;48.274;7.796;2024-01-06T15:26:50;7.40;99.90
7360;DHT22;3720;48.274;7.796;2024-01-06T15:29:22;7.40;99.90
7360;DHT22;3720;48.274;7.796;2024-01-06T15:31:54;7.40;99.90
7360;DHT22;3720;48.274;7.796;2024-01-06T15:34:27;7.40;99.90
7360;DHT22;3720;48.274;7.796;2024-01-06T15:37:00;7.40;99.90
7360;DHT22;3720;48.274;7.796;2024-01-06T15:39:32;7.40;99.90
7360;DHT22;3720;48.274;7.796;2024-01-06T15:42:04;7.30;99.90
7360;DHT22;3720;48.274;7.796;2024-01-06T15:44:36;7.30;99.90
7360;DHT22;3720;48.274;7.796;2024-01-06T15:47:09;7.40;99.90
7360;DHT22;3720;48.274;7.796;2024-01-06T15:49:41;7.30;99.90
7360;DHT22;3720;48.274;7.796;2024-01-06T15:52:14;7.30;99.90
7360;DHT22;3720;48.274;7.796;2024-01-06T15:54:51;7.30;99.90
7360;DHT22;3720;48.274;7.796;2024-01-06T15:57:24;7.20;99.90
7360;DHT22;3720;48.274;7.796;2024-01-06T15:59:57;7.20;99.90
7360;DHT22;3720;48.274;7.796;2024-01-06T16:02:29;7.20;99.90
7360;DHT22;3720;48.274;7.796;2024-01-06T16:05:02;7.20;99.90
7360;DHT22;3720;48.274;7.796;2024-01-06T16:07:36;7.20;99.90
7360;DHT22;3720;48.274;7.796;2024-01-06T16:10:08;7.20;99.90
7360;DHT22;3720;48.274;7.796;2024-01-06T16:12:41;7.10;99.90
7360;DHT22;3720;48.274;7.796;2024-01-06T16:15:13;7.10;99.90
7360;DHT22;3720;48.274;7.796;2024-01-06T16:17:45;7.10;99.90
7360;DHT22;3720;48.274;7.796;2024-01-06T16:20:17;7.10;99.90
7360;DHT22;3720;48.274;7.796;2024-01-06T16:22:50;7.00;99.90
7360;DHT22;3720;48.274;7.796;2024-01-06T16:25:24;7.00;99.90
7360;DHT22;3720;48.274;7.796;2024-01-06T16:27:56;7.00;99.90
7360;DHT22;3720;48.274;7.796;2024-01-06T16:30:28;7.00;99.90
7360;DHT22;3720;48.274;7.796;2024-01-06T16:33:00;7.00;99.90
7360;DHT22;3720;48.274;7.796;2024-01-06T16:35:32;7.00;99.90
7360;DHT22;3720;48.274;7.796;2024-01-06T16:38:05;6.90;99.90
7360;DHT22;3720;48.274;7.796;2024-01-06T16:40:37;6.90;99.90
7360;DHT22;3720;48.274;7.796;2024-01-06T16:43:09;6.90;99.90
7360;DHT22;3720;48.274;7.796;2024-01-06T16:45:42;6.90;99.90
7360;DHT22;3720;48.274;7.796;2024-01-06T16:48:14;6.90;99.90
7360;DHT22;3720;48.274;7.796;2024-01-06T16:50:47;6.90;99.90